Time;durP1;ratioP1;P1;durP2;ratioP2;P2;SDS_P1;SDS_P2;PMS_P1;PMS_P2;Temp;Humidity;BMP_temperature;BMP_pressure;BME280_temperature;BME280_humidity;BME280_pressure;Samples;Min_cycle;Max_cycle;Signal;HPM_P1;HPM_P2
2022/01/14 00:02:05;;;;;;;29.30;19.27;;;;;;;1.80;78.90;97272.97;4315286;32;20204;-58
2022/01/14 00:04:31;;;;;;;31.58;20.37;;;;;;;1.78;79.10;97274.16;4340416;32;20205;-58
2022/01/14 00:06:57;;;;;;;29.33;19.97;;;;;;;1.93;78.53;97264.41;4323289;32;20189;-63
2022/01/14 00:09:23;;;;;;;32.80;20.88;;;;;;;1.89;78.78;97274.44;4347077;32;20281;-59
2022/01/14 00:11:54;;;;;;;34.13;21.20;;;;;;;1.77;79.05;97267.31;4347565;32;20207;-58
2022/01/14 00:14:22;;;;;;;31.08;19.73;;;;;;;1.94;78.46;97271.25;4350806;32;20201;-58
2022/01/14 00:16:49;;;;;;;30.65;20.90;;;;;;;1.98;78.38;97270.69;4323614;32;20207;-58
2022/01/14 00:19:17;;;;;;;31.65;20.70;;;;;;;1.86;78.35;97274.84;4302802;32;20293;-58
2022/01/14 00:21:44;;;;;;;32.80;20.40;;;;;;;1.69;79.55;97276.91;4332630;32;20244;-58
2022/01/14 00:24:23;;;;;;;33.25;21.33;;;;;;;1.65;79.59;97269.66;4362578;32;20189;-58
2022/01/14 00:35:17;;;;;;;38.25;23.00;;;;;;;1.68;79.67;97264.00;4341774;32;20268;-59
2022/01/14 00:37:42;;;;;;;33.60;20.93;;;;;;;1.43;80.33;97261.00;4317560;32;20188;-58
2022/01/14 00:40:08;;;;;;;36.30;21.67;;;;;;;1.69;79.84;97260.41;4311321;32;20189;-58
2022/01/14 00:42:34;;;;;;;32.50;20.97;;;;;;;1.41;79.92;97259.56;4344684;32;20223;-59
2022/01/14 00:44:59;;;;;;;34.42;21.45;;;;;;;1.43;80.40;97258.41;4332144;32;20197;-58
2022/01/14 00:47:25;;;;;;;40.50;21.97;;;;;;;1.35;80.13;97250.66;4336320;32;20268;-59
2022/01/14 00:49:50;;;;;;;30.50;20.37;;;;;;;1.21;80.75;97241.91;4314812;32;20209;-59
2022/01/14 00:52:15;;;;;;;30.00;19.10;;;;;;;1.34;80.40;97235.97;4337706;32;20224;-57
2022/01/14 00:54:42;;;;;;;31.37;20.20;;;;;;;1.58;79.57;97235.59;4322871;32;20185;-58
2022/01/14 00:57:25;;;;;;;31.00;19.35;;;;;;;1.37;79.73;97239.03;4344097;32;20185;-58
2022/01/14 00:59:51;;;;;;;32.60;20.95;;;;;;;1.51;79.03;97239.12;4331415;32;20205;-58
2022/01/14 01:02:17;;;;;;;30.90;20.27;;;;;;;1.37;79.42;97241.63;4348218;32;20218;-58
2022/01/14 01:04:44;;;;;;;31.20;20.20;;;;;;;1.40;79.50;97245.69;4334312;32;20256;-58
2022/01/14 01:07:14;;;;;;;30.62;20.25;;;;;;;1.50;79.15;97237.50;4349268;32;20215;-59
2022/01/14 01:09:45;;;;;;;32.75;21.05;;;;;;;1.44;79.25;97238.28;4326424;32;20186;-59
2022/01/14 01:12:17;;;;;;;36.78;23.52;;;;;;;1.36;79.37;97229.56;4348878;32;20220;-59
2022/01/14 01:15:03;;;;;;;36.15;21.73;;;;;;;1.18;80.17;97231.81;4333593;32;20181;-59
2022/01/14 01:17:30;;;;;;;34.28;21.17;;;;;;;1.36;79.56;97219.09;4355161;32;20193;-58
2022/01/14 01:19:57;;;;;;;38.75;21.90;;;;;;;1.40;79.34;97210.91;4342254;32;20261;-59
2022/01/14 01:22:22;;;;;;;34.33;21.42;;;;;;;1.22;80.10;97214.78;4357982;32;20189;-58
2022/01/14 01:24:48;;;;;;;33.83;21.53;;;;;;;1.12;80.32;97216.88;4369036;32;20203;-59
2022/01/14 01:27:15;;;;;;;35.63;21.33;;;;;;;1.10;80.95;97224.09;4340271;32;20272;-58
2022/01/14 01:32:08;;;;;;;32.87;21.27;;;;;;;1.18;80.14;97231.00;4346257;32;20231;-58
2022/01/14 01:34:38;;;;;;;30.58;20.95;;;;;;;1.16;80.14;97227.75;4361238;32;20232;-59
2022/01/14 01:37:05;;;;;;;31.75;19.83;;;;;;;1.30;80.10;97225.06;4339440;32;20276;-58
2022/01/14 01:39:34;;;;;;;29.15;19.12;;;;;;;1.26;79.22;97223.81;4347842;32;20186;-59
2022/01/14 01:42:06;;;;;;;26.77;17.80;;;;;;;1.19;79.54;97225.59;4366768;32;20208;-58
2022/01/14 01:44:33;;;;;;;27.30;16.65;;;;;;;1.24;79.15;97217.19;4367734;32;20197;-58
2022/01/14 01:47:00;;;;;;;26.40;17.12;;;;;;;1.15;79.11;97226.16;4349439;32;20192;-59
2022/01/14 01:49:29;;;;;;;28.83;18.30;;;;;;;1.21;78.59;97220.19;4326504;32;20214;-59
2022/01/14 01:51:56;;;;;;;22.25;16.05;;;;;;;1.25;78.16;97222.22;4314763;32;20189;-59
2022/01/14 01:54:25;;;;;;;23.92;17.00;;;;;;;1.27;78.23;97215.00;4332302;33;20189;-59
2022/01/14 01:56:51;;;;;;;21.17;15.80;;;;;;;1.29;78.02;97222.66;4344715;32;20188;-59
2022/01/14 01:59:25;;;;;;;26.35;17.17;;;;;;;1.25;78.37;97224.81;4346424;32;20211;-59
2022/01/14 02:01:52;;;;;;;29.17;18.62;;;;;;;1.13;78.34;97226.31;4315915;32;20187;-60
2022/01/14 02:04:19;;;;;;;29.40;17.60;;;;;;;1.28;78.25;97226.25;4333420;32;20197;-59
2022/01/14 02:06:47;;;;;;;27.52;17.62;;;;;;;1.30;78.55;97214.62;4351358;32;20276;-59
2022/01/14 02:09:13;;;;;;;30.92;19.23;;;;;;;1.19;79.11;97220.38;4339971;32;20227;-59
2022/01/14 02:11:39;;;;;;;29.12;18.95;;;;;;;1.14;79.41;97212.28;4370598;32;20233;-58
2022/01/14 02:14:15;;;;;;;27.37;18.10;;;;;;;1.37;79.06;97204.22;4324444;32;20197;-59
2022/01/14 02:19:30;;;;;;;27.52;17.85;;;;;;;1.46;78.71;97210.13;4344490;32;20201;-60
2022/01/14 02:22:11;;;;;;;27.25;17.48;;;;;;;1.41;78.45;97204.66;4362269;32;20193;-59
2022/01/14 02:27:15;;;;;;;27.30;17.60;;;;;;;1.46;78.85;97197.84;4369332;32;20244;-59
2022/01/14 02:29:41;;;;;;;27.60;17.60;;;;;;;1.50;78.12;97206.13;4343972;32;20203;-58
2022/01/14 02:32:08;;;;;;;28.52;18.00;;;;;;;1.37;78.57;97210.28;4362518;32;20246;-58
2022/01/14 02:34:37;;;;;;;27.37;18.77;;;;;;;1.30;79.11;97212.00;4345260;32;20197;-59
2022/01/14 02:37:03;;;;;;;26.90;18.45;;;;;;;1.27;79.29;97201.13;4360994;32;20227;-59
2022/01/14 02:39:29;;;;;;;28.75;19.33;;;;;;;1.30;79.71;97193.72;4368393;32;20203;-59
2022/01/14 02:41:55;;;;;;;28.97;18.83;;;;;;;1.09;80.36;97191.09;4336332;32;20189;-59
2022/01/14 02:44:27;;;;;;;26.67;18.40;;;;;;;1.08;80.70;97181.66;4302940;32;20193;-59
2022/01/14 02:46:57;;;;;;;29.02;18.40;;;;;;;1.30;79.91;97185.88;4342642;32;20189;-58
2022/01/14 02:49:29;;;;;;;26.77;18.70;;;;;;;1.28;79.51;97174.78;4351720;32;20230;-59
2022/01/14 02:51:58;;;;;;;32.30;20.27;;;;;;;1.35;79.48;97175.66;4356834;32;20206;-59
2022/01/14 02:54:32;;;;;;;34.70;21.80;;;;;;;1.28;79.73;97184.44;4342357;32;20192;-58
2022/01/14 02:57:02;;;;;;;39.75;22.45;;;;;;;1.13;80.96;97173.25;4358585;32;20204;-59
2022/01/14 02:59:29;;;;;;;38.90;22.90;;;;;;;0.87;82.14;97171.19;4340355;32;20229;-64
2022/01/14 03:02:01;;;;;;;39.63;22.95;;;;;;;0.98;82.02;97174.16;4345815;32;20219;-65
2022/01/14 03:04:27;;;;;;;38.00;22.35;;;;;;;0.87;82.37;97172.00;4358005;32;20196;-60
2022/01/14 03:06:53;;;;;;;40.85;24.45;;;;;;;0.93;81.86;97176.50;4364811;32;20185;-59
2022/01/14 03:09:18;;;;;;;38.17;22.87;;;;;;;1.10;81.53;97169.22;4325843;32;20215;-59
2022/01/14 03:11:47;;;;;;;39.30;23.10;;;;;;;1.19;80.97;97170.72;4367289;32;20302;-59
2022/01/14 03:14:24;;;;;;;38.83;23.23;;;;;;;1.40;79.95;97167.25;4362694;32;20213;-60
2022/01/14 03:16:55;;;;;;;40.60;23.42;;;;;;;1.36;80.10;97155.56;4345132;32;20185;-60
2022/01/14 03:19:25;;;;;;;40.35;22.98;;;;;;;1.28;80.21;97148.66;4345960;32;20264;-59
2022/01/14 03:22:06;;;;;;;36.95;23.17;;;;;;;1.33;79.92;97146.28;4349686;32;20204;-60
2022/01/14 03:27:03;;;;;;;44.97;24.40;;;;;;;1.22;80.46;97148.63;4356863;32;20189;-59
2022/01/14 03:29:36;;;;;;;39.63;24.02;;;;;;;1.10;81.36;97143.06;4313705;32;20256;-60
2022/01/14 03:32:04;;;;;;;42.62;24.83;;;;;;;1.07;81.08;97132.19;4333438;32;20192;-59
2022/01/14 03:34:31;;;;;;;41.30;24.67;;;;;;;1.15;80.94;97132.88;4368325;32;20189;-59
2022/01/14 03:36:59;;;;;;;38.47;23.25;;;;;;;0.98;80.95;97142.78;4333592;32;20209;-65
2022/01/14 03:39:26;;;;;;;38.25;24.08;;;;;;;0.95;81.54;97137.13;4341323;32;20228;-62
2022/01/14 03:41:53;;;;;;;40.47;24.17;;;;;;;0.95;81.28;97137.94;4324863;32;20221;-59
2022/01/14 03:44:19;;;;;;;40.80;24.00;;;;;;;1.02;81.11;97132.78;4353371;32;20194;-60
2022/01/14 03:46:45;;;;;;;42.00;25.45;;;;;;;1.12;80.27;97135.06;4337754;32;20272;-59
2022/01/14 03:49:12;;;;;;;40.37;23.63;;;;;;;1.09;80.46;97128.41;4345382;32;20280;-60
2022/01/14 03:51:41;;;;;;;38.33;23.62;;;;;;;1.07;80.54;97133.00;4310842;33;20251;-60
2022/01/14 03:54:09;;;;;;;40.00;23.87;;;;;;;1.13;80.44;97134.87;4323499;32;20229;-60
2022/01/14 03:56:39;;;;;;;41.85;23.83;;;;;;;1.26;80.16;97127.13;4310244;32;20190;-60
2022/01/14 03:59:06;;;;;;;38.65;22.95;;;;;;;1.16;79.95;97123.22;4322933;32;20241;-60
2022/01/14 04:01:31;;;;;;;37.78;23.25;;;;;;;1.30;79.45;97123.12;4325393;32;20193;-60
2022/01/14 04:03:57;;;;;;;40.77;23.33;;;;;;;1.17;79.63;97115.22;4344220;32;20291;-60
2022/01/14 04:06:23;;;;;;;39.07;23.80;;;;;;;1.37;78.98;97113.53;4331104;32;20232;-59
2022/01/14 04:08:53;;;;;;;42.38;24.25;;;;;;;1.21;79.70;97116.44;4341037;32;20258;-60
2022/01/14 04:11:23;;;;;;;37.58;22.67;;;;;;;1.02;80.08;97112.69;4327609;32;20177;-59
2022/01/14 04:13:51;;;;;;;43.08;24.15;;;;;;;1.12;80.37;97107.13;4348645;32;20219;-59
2022/01/14 04:16:24;;;;;;;36.75;22.83;;;;;;;1.24;79.36;97116.06;4328504;32;20201;-60
2022/01/14 04:18:53;;;;;;;38.85;23.08;;;;;;;1.15;79.84;97106.75;4346487;32;20208;-60
2022/01/14 04:21:19;;;;;;;38.58;23.85;;;;;;;1.02;80.32;97112.69;4345825;32;20193;-60
2022/01/14 04:23:45;;;;;;;35.97;22.57;;;;;;;1.06;80.35;97109.66;4351337;32;20295;-60
2022/01/14 04:26:11;;;;;;;36.67;23.40;;;;;;;1.01;80.40;97112.87;4340736;32;20225;-60
2022/01/14 04:28:36;;;;;;;37.13;23.35;;;;;;;0.99;80.20;97102.59;4321985;32;20189;-60
2022/01/14 04:31:12;;;;;;;37.60;21.77;;;;;;;0.98;79.81;97111.44;4334420;32;20216;-60
2022/01/14 04:33:38;;;;;;;36.22;22.30;;;;;;;1.09;79.56;97107.50;4334597;32;20279;-59
2022/01/14 04:36:10;;;;;;;36.17;22.75;;;;;;;1.17;79.03;97109.16;4346414;32;20208;-59
2022/01/14 04:38:41;;;;;;;37.67;22.35;;;;;;;0.85;80.14;97107.88;4338257;32;20206;-60
2022/01/14 04:41:10;;;;;;;37.38;22.90;;;;;;;0.73;80.63;97104.97;4328719;32;20279;-60
2022/01/14 04:43:36;;;;;;;34.33;22.77;;;;;;;0.77;81.23;97106.22;4345828;32;20184;-60
2022/01/14 04:48:59;;;;;;;37.33;21.70;;;;;;;0.97;79.95;97104.59;4359319;32;20247;-60
2022/01/14 04:51:25;;;;;;;32.97;22.08;;;;;;;1.01;80.25;97094.59;4339600;32;20295;-65
2022/01/14 04:53:52;;;;;;;37.00;23.17;;;;;;;1.17;79.59;97089.06;4361268;32;20226;-59
2022/01/14 04:56:20;;;;;;;32.88;21.33;;;;;;;0.97;79.75;97088.13;4355630;32;20243;-60
2022/01/14 04:58:55;;;;;;;36.08;22.20;;;;;;;1.21;79.10;97090.31;4350814;32;20218;-60
2022/01/14 05:01:23;;;;;;;36.03;23.15;;;;;;;1.20;79.12;97088.69;4353114;32;20215;-60
2022/01/14 05:03:48;;;;;;;30.12;19.70;;;;;;;1.07;79.69;97085.97;4338412;32;20248;-59
2022/01/14 05:06:15;;;;;;;33.83;21.33;;;;;;;1.23;79.31;97093.56;4361155;32;20270;-59
2022/01/14 05:08:40;;;;;;;33.90;20.70;;;;;;;1.19;78.89;97094.91;4344746;32;20213;-60
2022/01/14 05:13:40;;;;;;;29.25;19.25;;;;;;;1.23;78.79;97093.56;4352159;32;20263;-59
2022/01/14 05:16:07;;;;;;;31.27;20.33;;;;;;;1.25;78.11;97085.50;4327773;32;20284;-60
2022/01/14 05:18:32;;;;;;;32.17;19.77;;;;;;;1.28;78.38;97092.94;4330903;32;20244;-59
2022/01/14 05:20:57;;;;;;;31.90;20.50;;;;;;;1.07;79.08;97093.81;4319008;32;20213;-60
2022/01/14 05:23:24;;;;;;;34.77;19.23;;;;;;;0.89;79.72;97093.47;4330434;32;20186;-60
2022/01/14 05:25:51;;;;;;;33.42;19.55;;;;;;;0.95;79.76;97090.91;4343158;32;20220;-60
2022/01/14 05:28:17;;;;;;;27.45;18.60;;;;;;;1.06;79.53;97094.81;4324057;32;20188;-60
2022/01/14 05:30:45;;;;;;;30.70;18.57;;;;;;;0.99;80.15;97091.34;4326311;32;20232;-60
2022/01/14 05:33:15;;;;;;;27.67;18.50;;;;;;;0.99;79.73;97096.56;4355936;32;20235;-60
2022/01/14 05:35:44;;;;;;;25.90;17.08;;;;;;;0.97;79.03;97086.31;4347621;32;20193;-59
2022/01/14 05:38:12;;;;;;;23.83;15.18;;;;;;;0.92;79.63;97090.47;4342576;32;20200;-60
2022/01/14 05:40:39;;;;;;;23.73;16.42;;;;;;;0.96;79.56;97081.28;4347352;32;20236;-60
2022/01/14 05:43:05;;;;;;;22.73;16.25;;;;;;;1.08;79.04;97084.97;4340337;32;20200;-60
2022/01/14 05:45:32;;;;;;;22.60;15.27;;;;;;;1.05;78.66;97082.72;4305337;32;20240;-60
2022/01/14 05:47:58;;;;;;;23.52;16.02;;;;;;;1.13;78.87;97085.22;4352672;32;20203;-60
2022/01/14 05:50:27;;;;;;;22.27;15.85;;;;;;;1.04;78.10;97083.72;4351270;32;20181;-60
2022/01/14 05:52:53;;;;;;;24.17;15.48;;;;;;;0.84;78.60;97086.19;4347721;32;20256;-60
2022/01/14 05:55:21;;;;;;;23.40;15.67;;;;;;;1.02;78.54;97081.34;4333001;32;20233;-60
2022/01/14 05:57:47;;;;;;;21.67;14.00;;;;;;;1.23;77.76;97088.31;4294363;32;20249;-60
2022/01/14 06:00:20;;;;;;;21.08;14.73;;;;;;;1.04;78.54;97084.53;4285267;32;20262;-60
2022/01/14 06:02:47;;;;;;;21.90;15.90;;;;;;;1.08;78.50;97087.59;4325677;32;20224;-59
2022/01/14 06:05:13;;;;;;;23.23;14.98;;;;;;;1.19;78.22;97092.31;4326554;32;20197;-59
2022/01/14 06:07:40;;;;;;;22.02;15.32;;;;;;;1.16;78.04;97103.13;4343983;32;20189;-60
2022/01/14 06:10:09;;;;;;;23.87;15.43;;;;;;;1.30;77.83;97107.44;4319447;32;20186;-60
2022/01/14 06:12:35;;;;;;;21.75;15.02;;;;;;;0.95;79.25;97108.38;4323346;32;20203;-60
2022/01/14 06:15:01;;;;;;;21.27;15.17;;;;;;;1.24;78.68;97113.47;4321480;33;20204;-60
2022/01/14 06:17:27;;;;;;;22.48;14.65;;;;;;;1.07;79.15;97109.47;4331099;32;20541;-60
2022/01/14 06:20:05;;;;;;;20.70;14.43;;;;;;;1.07;79.39;97113.91;4354763;32;20243;-60
2022/01/14 06:22:31;;;;;;;21.90;14.85;;;;;;;1.25;78.61;97107.22;4345059;32;20282;-59
2022/01/14 06:25:00;;;;;;;25.15;16.83;;;;;;;1.32;78.17;97097.63;4353736;32;20201;-59
2022/01/14 06:27:28;;;;;;;24.25;16.10;;;;;;;1.24;78.40;97100.41;4341022;32;20209;-59
2022/01/14 06:29:53;;;;;;;23.75;16.08;;;;;;;1.29;78.85;97098.00;4337668;32;20268;-59
2022/01/14 06:32:21;;;;;;;23.10;15.57;;;;;;;1.15;79.06;97100.72;4357788;32;20231;-59
2022/01/14 06:34:46;;;;;;;22.20;15.30;;;;;;;1.32;78.93;97095.00;4348141;32;20235;-58
2022/01/14 06:37:11;;;;;;;20.97;14.97;;;;;;;1.23;79.31;97098.78;4332254;32;20201;-61
2022/01/14 06:39:37;;;;;;;22.87;15.60;;;;;;;1.38;78.60;97102.09;4338675;32;20252;-62
2022/01/14 06:42:04;;;;;;;24.53;14.53;;;;;;;1.50;77.81;97101.53;4333580;32;20204;-63
2022/01/14 06:44:30;;;;;;;24.05;15.35;;;;;;;1.01;79.77;97091.97;4349717;32;20188;-62
2022/01/14 06:46:56;;;;;;;24.83;14.73;;;;;;;1.17;79.08;97089.06;4358992;32;20193;-62
2022/01/14 06:49:24;;;;;;;24.73;14.73;;;;;;;1.28;78.42;97082.50;4345243;32;20204;-61
2022/01/14 06:51:50;;;;;;;21.65;14.60;;;;;;;1.26;78.32;97082.69;4355611;32;20193;-62
2022/01/14 06:54:19;;;;;;;23.03;15.30;;;;;;;1.09;79.42;97083.97;4330153;32;20265;-61
2022/01/14 06:56:45;;;;;;;30.10;15.57;;;;;;;1.29;78.97;97077.09;4322982;32;20269;-62
2022/01/14 06:59:10;;;;;;;20.67;15.20;;;;;;;1.42;78.38;97073.75;4317651;32;20288;-62
2022/01/14 07:01:36;;;;;;;22.63;15.87;;;;;;;1.48;78.20;97070.34;4360631;32;20240;-62
2022/01/14 07:04:04;;;;;;;24.30;14.67;;;;;;;1.40;78.39;97072.34;4340179;32;20238;-62
2022/01/14 07:06:29;;;;;;;24.87;15.23;;;;;;;1.43;78.28;97072.75;4361931;32;20193;-62
2022/01/14 07:08:55;;;;;;;25.17;15.93;;;;;;;1.18;79.12;97082.84;4368323;32;20196;-63
2022/01/14 07:11:25;;;;;;;27.67;17.33;;;;;;;1.07;79.62;97087.78;4329587;32;20211;-61
2022/01/14 07:13:52;;;;;;;27.80;17.15;;;;;;;1.06;79.80;97091.38;4318041;32;20186;-62
2022/01/14 07:16:19;;;;;;;82.45;13.05;;;;;;;1.12;79.87;97085.41;4332635;32;20284;-64
2022/01/14 07:18:48;;;;;;;31.53;16.30;;;;;;;4.69;100.00;97082.78;4328029;32;20189;-64
2022/01/14 07:21:15;;;;;;;24.23;14.13;;;;;;;6.40;100.00;97079.50;4336045;32;20291;-64
2022/01/14 07:23:40;;;;;;;20.93;15.20;;;;;;;8.25;73.03;97078.03;4353310;32;20300;-64
2022/01/14 07:26:06;;;;;;;20.27;14.10;;;;;;;8.74;64.43;97074.97;4373409;32;20316;-64
2022/01/14 07:28:31;;;;;;;18.33;13.43;;;;;;;9.01;58.61;97075.16;4335939;32;20180;-64
2022/01/14 07:30:57;;;;;;;18.23;12.97;;;;;;;9.97;55.20;97087.22;4311244;32;20276;-64
2022/01/14 07:33:22;;;;;;;16.03;12.67;;;;;;;10.21;53.18;97093.91;4350510;32;20177;-64
2022/01/14 07:35:49;;;;;;;15.07;11.57;;;;;;;9.93;50.57;97096.72;4351162;32;20193;-64
2022/01/14 07:38:15;;;;;;;13.37;11.50;;;;;;;10.15;51.49;97100.19;4349771;32;20180;-63
2022/01/14 07:40:43;;;;;;;14.70;12.13;;;;;;;10.48;49.95;97098.47;4377910;32;20287;-63
2022/01/14 07:43:11;;;;;;;12.33;11.13;;;;;;;10.39;49.08;97098.13;4366167;32;20368;-64
2022/01/14 07:45:38;;;;;;;15.63;11.17;;;;;;;10.59;48.54;97101.00;4359602;32;20201;-64
2022/01/14 07:48:03;;;;;;;13.23;11.57;;;;;;;10.49;48.20;97092.13;4343918;32;20201;-63
2022/01/14 07:50:30;;;;;;;14.63;11.83;;;;;;;10.45;47.96;97106.91;4355778;32;20246;-63
2022/01/14 07:52:56;;;;;;;14.17;11.17;;;;;;;10.09;48.10;97103.81;4326938;32;20215;-64
2022/01/14 07:55:22;;;;;;;14.87;11.53;;;;;;;10.17;48.52;97105.25;4360861;32;20197;-63
2022/01/14 07:57:49;;;;;;;15.53;11.57;;;;;;;10.13;48.27;97104.94;4363977;32;20313;-63
2022/01/14 08:00:16;;;;;;;13.73;11.40;;;;;;;10.07;47.61;97105.09;4346753;32;20261;-63
2022/01/14 08:02:41;;;;;;;13.53;11.27;;;;;;;10.14;48.07;97095.13;4344413;32;20189;-63
2022/01/14 08:05:10;;;;;;;12.60;11.23;;;;;;;9.91;47.95;97102.25;4336360;32;20240;-63
2022/01/14 08:07:45;;;;;;;12.27;10.90;;;;;;;10.13;47.82;97104.94;4374529;32;20204;-63
2022/01/14 08:10:12;;;;;;;11.80;10.70;;;;;;;10.09;47.94;97103.00;4367129;32;20195;-63
2022/01/14 08:12:40;;;;;;;12.37;10.93;;;;;;;10.06;47.83;97099.00;4339896;32;20205;-63
2022/01/14 08:15:09;;;;;;;12.57;10.77;;;;;;;10.08;47.51;97096.91;4329857;32;20304;-63
2022/01/14 08:17:35;;;;;;;11.43;10.20;;;;;;;10.10;47.79;97100.09;4325036;32;20222;-64
2022/01/14 08:20:05;;;;;;;14.37;9.63;;;;;;;9.81;47.78;97102.09;4351630;32;20192;-64
2022/01/14 08:22:31;;;;;;;12.50;7.33;;;;;;;9.93;51.65;97107.31;4359257;32;20193;-63
2022/01/14 08:25:00;;;;;;;33.70;11.53;;;;;;;10.63;69.79;97101.28;4320649;32;20220;-64
2022/01/14 08:27:28;;;;;;;13.43;9.57;;;;;;;11.24;64.14;97104.53;4328915;32;20201;-64
2022/01/14 08:29:54;;;;;;;26.47;9.90;;;;;;;11.56;62.46;97104.53;4356165;32;20224;-63
2022/01/14 08:32:24;;;;;;;17.03;9.27;;;;;;;11.14;51.68;97104.44;4332560;32;20197;-63
2022/01/14 08:34:50;;;;;;;14.97;9.10;;;;;;;11.03;56.39;97099.03;4338693;32;20200;-61
2022/01/14 08:37:17;;;;;;;14.97;9.90;;;;;;;10.94;55.93;97100.56;4344909;32;20200;-62
2022/01/14 08:39:44;;;;;;;12.37;9.50;;;;;;;10.58;55.88;97095.94;4334918;32;20240;-62
2022/01/14 08:42:17;;;;;;;10.93;9.83;;;;;;;10.39;54.27;97099.97;4325007;32;20210;-60
2022/01/14 08:44:45;;;;;;;12.03;9.80;;;;;;;9.83;48.95;97099.19;4335657;32;20213;-62
2022/01/14 08:47:13;;;;;;;14.87;10.10;;;;;;;8.22;51.73;97097.00;4339285;32;20254;-62
2022/01/14 08:49:43;;;;;;;13.60;10.33;;;;;;;6.42;56.45;97109.91;4315476;32;20202;-63
2022/01/14 08:52:12;;;;;;;12.43;10.40;;;;;;;5.56;59.37;97114.47;4339199;32;20291;-60
2022/01/14 08:54:38;;;;;;;13.50;9.83;;;;;;;4.92;62.80;97111.13;4338478;32;20468;-61
2022/01/14 08:57:04;;;;;;;11.83;10.63;;;;;;;4.38;65.27;97115.06;4322667;32;20364;-60
2022/01/14 08:59:31;;;;;;;10.33;9.23;;;;;;;4.16;66.37;97107.72;4340771;32;20201;-59
2022/01/14 09:02:02;;;;;;;10.80;8.60;;;;;;;3.93;67.45;97103.75;4322207;32;20235;-60
2022/01/14 09:04:29;;;;;;;10.20;9.13;;;;;;;3.72;68.84;97106.63;4332796;32;20297;-61
2022/01/14 09:06:55;;;;;;;10.43;9.03;;;;;;;3.88;69.53;97100.94;4337922;32;20281;-61
2022/01/14 09:09:22;;;;;;;11.05;9.85;;;;;;;4.06;68.97;97097.66;4321542;32;20147;-62
2022/01/14 09:11:49;;;;;;;9.17;8.23;;;;;;;3.60;70.06;97097.78;4330842;32;20197;-60
2022/01/14 09:14:14;;;;;;;10.00;8.43;;;;;;;3.99;69.56;97092.41;4290875;32;20296;-59
2022/01/14 09:16:41;;;;;;;10.07;8.60;;;;;;;4.38;68.24;97095.88;4321781;32;20328;-60
2022/01/14 09:19:08;;;;;;;9.67;8.40;;;;;;;4.45;67.35;97094.84;4298898;32;20243;-64
2022/01/14 09:21:34;;;;;;;11.77;9.00;;;;;;;4.21;67.60;97100.81;4355830;32;20277;-63
2022/01/14 09:24:04;;;;;;;12.80;7.93;;;;;;;3.98;69.01;97098.66;4310730;32;20302;-61
2022/01/14 09:26:33;;;;;;;11.43;8.07;;;;;;;4.06;68.32;97097.66;4334950;32;20301;-59
2022/01/14 09:28:59;;;;;;;9.57;7.67;;;;;;;4.21;68.39;97098.19;4344466;32;20332;-59
2022/01/14 09:31:25;;;;;;;8.67;7.77;;;;;;;4.18;68.99;97095.97;4339137;32;20289;-61
2022/01/14 09:33:57;;;;;;;9.73;7.57;;;;;;;4.07;68.11;97104.50;4329074;32;20349;-62
2022/01/14 09:36:22;;;;;;;8.80;7.93;;;;;;;4.26;67.86;97108.06;4332142;32;20246;-62
2022/01/14 09:38:49;;;;;;;9.50;7.13;;;;;;;4.25;67.47;97107.25;4333326;32;20297;-62
2022/01/14 09:41:17;;;;;;;8.90;6.83;;;;;;;4.31;67.13;97105.63;4340159;32;20196;-60
2022/01/14 09:43:44;;;;;;;7.53;6.73;;;;;;;4.25;66.78;97098.56;4343444;32;20331;-61
2022/01/14 09:46:11;;;;;;;8.17;7.10;;;;;;;4.19;66.92;97104.66;4338919;32;20301;-63
2022/01/14 09:48:37;;;;;;;8.50;6.20;;;;;;;4.35;67.31;97097.13;4313558;32;20216;-62
2022/01/14 09:51:06;;;;;;;10.07;7.20;;;;;;;4.23;67.46;97103.22;4323424;32;20375;-64
2022/01/14 09:53:33;;;;;;;8.90;7.60;;;;;;;4.50;66.17;97094.22;4345680;32;20281;-62
2022/01/14 09:56:04;;;;;;;8.70;7.90;;;;;;;4.58;65.95;97095.75;4332493;32;20312;-64
2022/01/14 09:58:36;;;;;;;7.93;7.13;;;;;;;4.53;66.43;97093.78;4309293;32;20312;-61
2022/01/14 10:01:11;;;;;;;8.20;7.40;;;;;;;4.67;65.91;97095.31;4314899;32;20281;-62
2022/01/14 10:04:01;;;;;;;7.73;7.07;;;;;;;4.72;65.52;97099.94;4287470;32;20285;-62
2022/01/14 10:06:53;;;;;;;9.40;7.03;;;;;;;4.67;65.59;97100.56;4326176;32;20301;-64
2022/01/14 10:09:21;;;;;;;7.90;7.13;;;;;;;4.60;66.06;97093.72;4340696;32;20307;-60
2022/01/14 10:12:07;;;;;;;8.37;7.57;;;;;;;4.82;65.23;97090.56;4319427;32;20378;-59
2022/01/14 10:14:37;;;;;;;7.13;6.43;;;;;;;4.95;64.54;97089.69;4308123;32;20502;-64
2022/01/14 10:17:06;;;;;;;7.17;6.47;;;;;;;5.08;64.28;97096.66;4304341;32;20329;-60
2022/01/14 10:19:39;;;;;;;8.00;6.80;;;;;;;5.04;64.34;97091.00;4283888;32;20308;-62
2022/01/14 10:22:20;;;;;;;8.70;6.77;;;;;;;5.05;64.19;97086.56;4304290;32;20393;-62
2022/01/14 10:25:00;;;;;;;7.53;6.40;;;;;;;5.28;63.97;97084.13;4321783;32;20386;-62
2022/01/14 10:27:44;;;;;;;6.17;5.67;;;;;;;5.24;63.35;97080.31;4351023;32;20281;-57
2022/01/14 10:30:18;;;;;;;8.17;7.37;;;;;;;5.42;62.19;97077.72;4332370;32;20311;-60
2022/01/14 10:32:58;;;;;;;6.83;6.13;;;;;;;5.47;62.44;97074.44;4336475;32;20334;-59
2022/01/14 10:35:27;;;;;;;7.90;7.20;;;;;;;5.40;61.63;97071.88;4352095;32;20299;-59
2022/01/14 10:37:59;;;;;;;6.70;6.10;;;;;;;5.50;61.95;97066.94;4353323;32;20303;-61
2022/01/14 10:40:28;;;;;;;7.00;6.30;;;;;;;5.53;61.53;97069.13;4319128;32;20337;-60
2022/01/14 10:43:06;;;;;;;6.27;5.67;;;;;;;5.75;61.30;97064.25;4308388;33;20297;-61
2022/01/14 10:45:35;;;;;;;6.50;5.37;;;;;;;5.77;60.91;97070.09;4342868;32;20302;-62
2022/01/14 10:48:11;;;;;;;6.60;6.00;;;;;;;5.72;60.84;97079.69;4322148;32;20341;-61
2022/01/14 10:50:40;;;;;;;6.53;5.50;;;;;;;5.88;60.30;97065.91;4331170;32;20331;-61
2022/01/14 10:53:22;;;;;;;6.50;5.90;;;;;;;5.75;59.56;97077.41;4314335;32;20361;-62
2022/01/14 10:55:51;;;;;;;5.17;4.87;;;;;;;5.76;59.64;97079.03;4323981;32;20388;-62
2022/01/14 10:58:29;;;;;;;6.10;5.37;;;;;;;5.82;59.19;97069.41;4325072;32;20361;-59
2022/01/14 11:01:00;;;;;;;8.30;5.57;;;;;;;5.80;59.50;97064.41;4311994;32;20282;-63
2022/01/14 11:03:36;;;;;;;5.97;5.33;;;;;;;6.00;59.12;97072.09;4302253;32;20367;-59
2022/01/14 11:06:24;;;;;;;5.43;5.03;;;;;;;6.08;58.90;97061.25;4291710;32;20278;-62
2022/01/14 11:09:12;;;;;;;6.93;6.23;;;;;;;5.97;58.98;97063.84;4302631;32;20318;-62
2022/01/14 11:11:41;;;;;;;5.10;4.70;;;;;;;6.05;58.92;97051.16;4324321;32;20404;-65
2022/01/14 11:14:08;;;;;;;6.50;5.20;;;;;;;6.25;58.56;97044.81;4285142;32;20282;-58
2022/01/14 11:16:35;;;;;;;7.73;5.60;;;;;;;6.42;59.49;97045.84;4310093;32;20374;-59
2022/01/14 11:19:04;;;;;;;7.23;5.10;;;;;;;6.63;58.21;97047.16;4292730;32;20369;-64
2022/01/14 11:24:41;;;;;;;5.83;5.17;;;;;;;6.81;56.69;97032.06;4306512;32;20301;-61
2022/01/14 11:27:12;;;;;;;7.70;5.53;;;;;;;6.96;56.27;97028.19;4259373;32;20312;-63
2022/01/14 11:29:42;;;;;;;6.03;5.43;;;;;;;7.07;55.92;97025.53;4301000;32;20301;-61
2022/01/14 11:32:09;;;;;;;5.67;4.93;;;;;;;6.99;56.32;97025.91;4317778;32;20293;-60
2022/01/14 11:34:44;;;;;;;5.97;5.47;;;;;;;6.70;56.87;97027.56;4316134;32;20343;-61
2022/01/14 11:37:13;;;;;;;5.90;5.40;;;;;;;7.00;56.22;97018.78;4311851;32;20294;-61
2022/01/14 11:39:40;;;;;;;6.33;5.73;;;;;;;6.94;56.92;97011.78;4325299;32;20345;-61
2022/01/14 11:42:14;;;;;;;7.00;6.30;;;;;;;6.84;56.33;97015.78;4313581;32;20301;-61
2022/01/14 11:47:43;;;;;;;7.20;5.87;;;;;;;7.34;55.74;97002.12;4338038;32;20386;-61
2022/01/14 11:50:25;;;;;;;7.00;6.30;;;;;;;7.28;56.17;97002.25;4331521;32;20337;-61
2022/01/14 11:52:52;;;;;;;8.40;6.03;;;;;;;7.18;56.55;96998.37;4289436;32;20304;-60
2022/01/14 11:55:34;;;;;;;7.75;6.43;;;;;;;7.16;56.15;96997.00;4315671;32;20177;-60
2022/01/14 11:58:14;;;;;;;6.30;5.80;;;;;;;7.05;56.26;96992.53;4314492;32;20197;-60
2022/01/14 12:00:47;;;;;;;8.47;6.33;;;;;;;7.24;56.10;96994.03;4288389;32;20294;-60
2022/01/14 12:03:16;;;;;;;7.23;5.57;;;;;;;7.28;55.74;96987.22;4307426;32;20346;-61
2022/01/14 12:05:55;;;;;;;6.07;5.33;;;;;;;7.29;56.33;96980.91;4298055;32;20358;-62
2022/01/14 12:08:34;;;;;;;6.90;5.23;;;;;;;7.41;55.32;96968.50;4293127;32;20408;-59